sensor_id;sensor_type;location;lat;lon;timestamp;P1;durP1;ratioP1;P2;durP2;ratioP2
59006;SDS011;44792;52.760;6.726;2022-11-15T00:00:47;22.92;;;12.82;;
59006;SDS011;44792;52.760;6.726;2022-11-15T00:03:14;27.73;;;13.10;;
59006;SDS011;44792;52.760;6.726;2022-11-15T00:05:41;22.38;;;11.43;;
59006;SDS011;44792;52.760;6.726;2022-11-15T00:08:07;21.35;;;12.05;;
59006;SDS011;44792;52.760;6.726;2022-11-15T00:10:33;22.35;;;11.65;;
59006;SDS011;44792;52.760;6.726;2022-11-15T00:12:58;20.90;;;12.23;;
59006;SDS011;44792;52.760;6.726;2022-11-15T00:15:24;18.55;;;10.98;;
59006;SDS011;44792;52.760;6.726;2022-11-15T00:17:49;22.13;;;11.73;;
59006;SDS011;44792;52.760;6.726;2022-11-15T00:20:16;20.02;;;11.15;;
59006;SDS011;44792;52.760;6.726;2022-11-15T00:22:42;22.95;;;13.05;;
59006;SDS011;44792;52.760;6.726;2022-11-15T00:25:08;24.58;;;11.77;;
59006;SDS011;44792;52.760;6.726;2022-11-15T00:27:33;21.00;;;12.10;;
59006;SDS011;44792;52.760;6.726;2022-11-15T00:30:00;28.73;;;14.48;;
59006;SDS011;44792;52.760;6.726;2022-11-15T00:32:25;21.45;;;11.48;;
59006;SDS011;44792;52.760;6.726;2022-11-15T00:34:51;25.00;;;12.15;;
59006;SDS011;44792;52.760;6.726;2022-11-15T00:37:16;23.08;;;12.82;;
59006;SDS011;44792;52.760;6.726;2022-11-15T00:39:42;25.38;;;11.85;;
59006;SDS011;44792;52.760;6.726;2022-11-15T00:42:07;31.33;;;12.43;;
59006;SDS011;44792;52.760;6.726;2022-11-15T00:44:33;21.98;;;11.77;;
59006;SDS011;44792;52.760;6.726;2022-11-15T00:46:58;26.40;;;12.20;;
59006;SDS011;44792;52.760;6.726;2022-11-15T00:49:24;22.77;;;11.30;;
59006;SDS011;44792;52.760;6.726;2022-11-15T00:51:50;28.17;;;13.23;;
59006;SDS011;44792;52.760;6.726;2022-11-15T00:54:15;24.80;;;12.48;;
59006;SDS011;44792;52.760;6.726;2022-11-15T00:56:41;25.33;;;12.48;;
59006;SDS011;44792;52.760;6.726;2022-11-15T00:59:06;26.88;;;12.68;;
59006;SDS011;44792;52.760;6.726;2022-11-15T01:01:32;24.85;;;12.38;;
59006;SDS011;44792;52.760;6.726;2022-11-15T01:03:57;26.92;;;12.57;;
59006;SDS011;44792;52.760;6.726;2022-11-15T01:06:23;28.38;;;13.40;;
59006;SDS011;44792;52.760;6.726;2022-11-15T01:08:48;27.92;;;13.02;;
59006;SDS011;44792;52.760;6.726;2022-11-15T01:11:14;24.52;;;12.05;;
59006;SDS011;44792;52.760;6.726;2022-11-15T01:13:39;27.20;;;13.35;;
59006;SDS011;44792;52.760;6.726;2022-11-15T01:16:06;25.98;;;12.38;;
59006;SDS011;44792;52.760;6.726;2022-11-15T01:18:44;21.65;;;11.15;;
59006;SDS011;44792;52.760;6.726;2022-11-15T01:21:11;24.35;;;12.20;;
59006;SDS011;44792;52.760;6.726;2022-11-15T01:23:39;27.33;;;12.45;;
59006;SDS011;44792;52.760;6.726;2022-11-15T01:26:06;27.80;;;13.98;;
59006;SDS011;44792;52.760;6.726;2022-11-15T01:28:33;26.52;;;12.88;;
59006;SDS011;44792;52.760;6.726;2022-11-15T01:31:00;24.33;;;12.60;;
59006;SDS011;44792;52.760;6.726;2022-11-15T01:33:27;23.98;;;12.40;;
59006;SDS011;44792;52.760;6.726;2022-11-15T01:35:53;28.88;;;12.80;;
59006;SDS011;44792;52.760;6.726;2022-11-15T01:38:19;24.80;;;12.05;;
59006;SDS011;44792;52.760;6.726;2022-11-15T01:40:45;22.17;;;11.75;;
59006;SDS011;44792;52.760;6.726;2022-11-15T01:43:23;22.63;;;11.55;;
59006;SDS011;44792;52.760;6.726;2022-11-15T01:45:52;23.60;;;12.10;;
59006;SDS011;44792;52.760;6.726;2022-11-15T01:48:39;26.20;;;11.88;;
59006;SDS011;44792;52.760;6.726;2022-11-15T01:51:06;23.48;;;12.02;;
59006;SDS011;44792;52.760;6.726;2022-11-15T01:53:35;25.30;;;12.07;;
59006;SDS011;44792;52.760;6.726;2022-11-15T01:56:04;24.58;;;12.07;;
59006;SDS011;44792;52.760;6.726;2022-11-15T01:58:32;25.40;;;11.48;;
59006;SDS011;44792;52.760;6.726;2022-11-15T02:00:59;21.30;;;10.88;;
59006;SDS011;44792;52.760;6.726;2022-11-15T02:03:27;26.60;;;11.98;;
59006;SDS011;44792;52.760;6.726;2022-11-15T02:06:10;24.45;;;11.80;;
59006;SDS011;44792;52.760;6.726;2022-11-15T02:08:36;25.00;;;12.23;;
59006;SDS011;44792;52.760;6.726;2022-11-15T02:11:04;28.65;;;12.43;;
59006;SDS011;44792;52.760;6.726;2022-11-15T02:13:32;30.70;;;13.02;;
59006;SDS011;44792;52.760;6.726;2022-11-15T02:15:59;29.35;;;13.10;;
59006;SDS011;44792;52.760;6.726;2022-11-15T02:18:52;28.42;;;13.15;;
59006;SDS011;44792;52.760;6.726;2022-11-15T02:21:39;29.20;;;13.27;;
59006;SDS011;44792;52.760;6.726;2022-11-15T02:24:20;33.65;;;14.52;;
59006;SDS011;44792;52.760;6.726;2022-11-15T02:36:01;30.17;;;13.07;;
59006;SDS011;44792;52.760;6.726;2022-11-15T02:41:04;38.42;;;13.57;;
59006;SDS011;44792;52.760;6.726;2022-11-15T02:43:54;33.83;;;15.25;;
59006;SDS011;44792;52.760;6.726;2022-11-15T02:46:33;29.98;;;13.85;;
59006;SDS011;44792;52.760;6.726;2022-11-15T02:49:22;33.50;;;14.10;;
59006;SDS011;44792;52.760;6.726;2022-11-15T02:51:50;37.92;;;15.07;;
59006;SDS011;44792;52.760;6.726;2022-11-15T02:54:21;31.13;;;14.20;;
59006;SDS011;44792;52.760;6.726;2022-11-15T02:56:49;33.22;;;14.93;;
59006;SDS011;44792;52.760;6.726;2022-11-15T02:59:26;38.42;;;15.85;;
59006;SDS011;44792;52.760;6.726;2022-11-15T03:13:02;38.92;;;16.45;;
59006;SDS011;44792;52.760;6.726;2022-11-15T03:15:44;30.13;;;14.35;;
59006;SDS011;44792;52.760;6.726;2022-11-15T03:18:30;28.77;;;14.27;;
59006;SDS011;44792;52.760;6.726;2022-11-15T03:20:59;42.95;;;16.70;;
59006;SDS011;44792;52.760;6.726;2022-11-15T03:23:27;36.65;;;15.75;;
59006;SDS011;44792;52.760;6.726;2022-11-15T03:25:55;39.78;;;16.42;;
59006;SDS011;44792;52.760;6.726;2022-11-15T03:28:40;31.08;;;15.68;;
59006;SDS011;44792;52.760;6.726;2022-11-15T03:31:07;41.28;;;16.15;;
59006;SDS011;44792;52.760;6.726;2022-11-15T03:33:58;38.75;;;15.65;;
59006;SDS011;44792;52.760;6.726;2022-11-15T03:36:27;36.95;;;17.08;;
59006;SDS011;44792;52.760;6.726;2022-11-15T03:38:55;34.92;;;15.18;;
59006;SDS011;44792;52.760;6.726;2022-11-15T03:41:35;36.58;;;17.02;;
59006;SDS011;44792;52.760;6.726;2022-11-15T03:47:03;32.22;;;15.57;;
59006;SDS011;44792;52.760;6.726;2022-11-15T03:49:35;51.07;;;17.37;;
59006;SDS011;44792;52.760;6.726;2022-11-15T03:52:05;36.08;;;17.40;;
59006;SDS011;44792;52.760;6.726;2022-11-15T03:54:31;36.50;;;16.48;;
59006;SDS011;44792;52.760;6.726;2022-11-15T03:56:57;36.47;;;17.30;;
59006;SDS011;44792;52.760;6.726;2022-11-15T03:59:22;31.83;;;16.45;;
59006;SDS011;44792;52.760;6.726;2022-11-15T04:01:48;36.90;;;17.35;;
59006;SDS011;44792;52.760;6.726;2022-11-15T04:04:14;33.83;;;17.15;;
59006;SDS011;44792;52.760;6.726;2022-11-15T04:06:39;40.25;;;17.05;;
59006;SDS011;44792;52.760;6.726;2022-11-15T04:09:05;41.53;;;17.67;;
59006;SDS011;44792;52.760;6.726;2022-11-15T04:11:30;43.10;;;17.42;;
59006;SDS011;44792;52.760;6.726;2022-11-15T04:13:56;39.58;;;16.73;;
59006;SDS011;44792;52.760;6.726;2022-11-15T04:16:21;40.03;;;18.58;;
59006;SDS011;44792;52.760;6.726;2022-11-15T04:18:47;39.58;;;19.48;;
59006;SDS011;44792;52.760;6.726;2022-11-15T04:21:32;40.78;;;19.58;;
59006;SDS011;44792;52.760;6.726;2022-11-15T04:24:17;43.33;;;19.20;;
59006;SDS011;44792;52.760;6.726;2022-11-15T04:26:42;41.80;;;20.20;;
59006;SDS011;44792;52.760;6.726;2022-11-15T04:29:08;45.28;;;18.45;;
59006;SDS011;44792;52.760;6.726;2022-11-15T04:31:52;46.08;;;20.42;;
59006;SDS011;44792;52.760;6.726;2022-11-15T04:34:17;43.50;;;19.42;;
59006;SDS011;44792;52.760;6.726;2022-11-15T04:36:43;46.25;;;19.25;;
59006;SDS011;44792;52.760;6.726;2022-11-15T04:39:27;39.58;;;18.50;;
59006;SDS011;44792;52.760;6.726;2022-11-15T04:41:53;45.92;;;18.45;;
59006;SDS011;44792;52.760;6.726;2022-11-15T04:44:18;42.35;;;17.65;;
59006;SDS011;44792;52.760;6.726;2022-11-15T04:46:44;41.05;;;19.25;;
59006;SDS011;44792;52.760;6.726;2022-11-15T04:49:09;39.58;;;18.80;;
59006;SDS011;44792;52.760;6.726;2022-11-15T04:51:35;39.50;;;18.83;;
59006;SDS011;44792;52.760;6.726;2022-11-15T04:54:00;40.72;;;18.75;;
59006;SDS011;44792;52.760;6.726;2022-11-15T04:56:26;45.65;;;19.52;;
59006;SDS011;44792;52.760;6.726;2022-11-15T04:58:51;42.25;;;19.02;;
59006;SDS011;44792;52.760;6.726;2022-11-15T05:01:17;38.63;;;18.00;;
59006;SDS011;44792;52.760;6.726;2022-11-15T05:03:43;46.25;;;18.60;;
59006;SDS011;44792;52.760;6.726;2022-11-15T05:06:28;39.17;;;17.23;;
59006;SDS011;44792;52.760;6.726;2022-11-15T05:08:54;35.35;;;17.48;;
59006;SDS011;44792;52.760;6.726;2022-11-15T05:11:20;38.03;;;17.65;;
59006;SDS011;44792;52.760;6.726;2022-11-15T05:13:46;33.35;;;17.17;;
59006;SDS011;44792;52.760;6.726;2022-11-15T05:16:12;41.38;;;17.83;;
59006;SDS011;44792;52.760;6.726;2022-11-15T05:18:37;40.50;;;17.58;;
59006;SDS011;44792;52.760;6.726;2022-11-15T05:21:06;40.67;;;17.63;;
59006;SDS011;44792;52.760;6.726;2022-11-15T05:23:33;40.30;;;17.45;;
59006;SDS011;44792;52.760;6.726;2022-11-15T05:25:59;34.55;;;16.95;;
59006;SDS011;44792;52.760;6.726;2022-11-15T05:28:25;38.55;;;17.25;;
59006;SDS011;44792;52.760;6.726;2022-11-15T05:30:51;34.67;;;16.85;;
59006;SDS011;44792;52.760;6.726;2022-11-15T05:33:17;37.47;;;17.88;;
59006;SDS011;44792;52.760;6.726;2022-11-15T05:35:44;35.83;;;17.27;;
59006;SDS011;44792;52.760;6.726;2022-11-15T05:38:13;36.97;;;16.75;;
59006;SDS011;44792;52.760;6.726;2022-11-15T05:40:39;33.70;;;18.42;;
59006;SDS011;44792;52.760;6.726;2022-11-15T05:43:05;34.35;;;16.23;;
59006;SDS011;44792;52.760;6.726;2022-11-15T05:45:31;31.80;;;15.98;;
59006;SDS011;44792;52.760;6.726;2022-11-15T05:47:58;35.42;;;17.10;;
59006;SDS011;44792;52.760;6.726;2022-11-15T05:50:29;31.05;;;16.02;;
59006;SDS011;44792;52.760;6.726;2022-11-15T05:52:55;34.13;;;16.33;;
59006;SDS011;44792;52.760;6.726;2022-11-15T05:55:21;38.42;;;16.83;;
59006;SDS011;44792;52.760;6.726;2022-11-15T05:57:47;36.72;;;16.05;;
59006;SDS011;44792;52.760;6.726;2022-11-15T06:00:13;34.88;;;16.95;;
59006;SDS011;44792;52.760;6.726;2022-11-15T06:02:38;37.47;;;17.05;;
59006;SDS011;44792;52.760;6.726;2022-11-15T06:05:04;28.52;;;15.32;;
59006;SDS011;44792;52.760;6.726;2022-11-15T06:07:30;35.50;;;16.05;;
59006;SDS011;44792;52.760;6.726;2022-11-15T06:09:55;29.83;;;15.73;;
59006;SDS011;44792;52.760;6.726;2022-11-15T06:12:21;37.13;;;15.73;;
59006;SDS011;44792;52.760;6.726;2022-11-15T06:14:47;30.77;;;16.45;;
59006;SDS011;44792;52.760;6.726;2022-11-15T06:17:12;32.55;;;15.90;;
59006;SDS011;44792;52.760;6.726;2022-11-15T06:19:38;27.05;;;13.77;;
59006;SDS011;44792;52.760;6.726;2022-11-15T06:22:03;25.85;;;14.10;;
59006;SDS011;44792;52.760;6.726;2022-11-15T06:24:29;27.15;;;14.20;;
59006;SDS011;44792;52.760;6.726;2022-11-15T06:26:54;29.70;;;16.42;;
59006;SDS011;44792;52.760;6.726;2022-11-15T06:29:20;29.13;;;14.35;;
59006;SDS011;44792;52.760;6.726;2022-11-15T06:31:45;29.58;;;14.45;;
59006;SDS011;44792;52.760;6.726;2022-11-15T06:34:11;25.67;;;14.63;;
59006;SDS011;44792;52.760;6.726;2022-11-15T06:36:37;32.75;;;16.17;;
59006;SDS011;44792;52.760;6.726;2022-11-15T06:39:03;29.25;;;13.98;;
59006;SDS011;44792;52.760;6.726;2022-11-15T06:41:29;25.73;;;14.85;;
59006;SDS011;44792;52.760;6.726;2022-11-15T06:43:55;28.35;;;14.65;;
59006;SDS011;44792;52.760;6.726;2022-11-15T06:46:22;27.42;;;14.57;;
59006;SDS011;44792;52.760;6.726;2022-11-15T06:48:50;27.40;;;13.82;;
59006;SDS011;44792;52.760;6.726;2022-11-15T06:51:16;28.40;;;13.88;;
59006;SDS011;44792;52.760;6.726;2022-11-15T06:53:41;30.25;;;14.73;;
59006;SDS011;44792;52.760;6.726;2022-11-15T06:56:07;27.40;;;14.00;;
59006;SDS011;44792;52.760;6.726;2022-11-15T06:58:33;29.17;;;15.05;;
59006;SDS011;44792;52.760;6.726;2022-11-15T07:00:59;22.63;;;13.68;;
59006;SDS011;44792;52.760;6.726;2022-11-15T07:03:29;26.77;;;13.68;;
59006;SDS011;44792;52.760;6.726;2022-11-15T07:05:55;23.75;;;13.98;;
59006;SDS011;44792;52.760;6.726;2022-11-15T07:08:22;25.55;;;12.40;;
59006;SDS011;44792;52.760;6.726;2022-11-15T07:10:48;26.77;;;13.18;;
59006;SDS011;44792;52.760;6.726;2022-11-15T07:13:14;26.02;;;13.10;;
59006;SDS011;44792;52.760;6.726;2022-11-15T07:15:40;28.40;;;13.80;;
59006;SDS011;44792;52.760;6.726;2022-11-15T07:18:05;27.25;;;13.85;;
59006;SDS011;44792;52.760;6.726;2022-11-15T07:20:31;24.60;;;12.80;;
59006;SDS011;44792;52.760;6.726;2022-11-15T07:23:00;25.25;;;14.40;;
59006;SDS011;44792;52.760;6.726;2022-11-15T07:25:27;25.40;;;13.40;;
59006;SDS011;44792;52.760;6.726;2022-11-15T07:27:59;24.08;;;13.45;;
59006;SDS011;44792;52.760;6.726;2022-11-15T07:30:25;24.42;;;13.60;;
59006;SDS011;44792;52.760;6.726;2022-11-15T07:32:55;23.25;;;13.25;;
59006;SDS011;44792;52.760;6.726;2022-11-15T07:35:21;23.33;;;13.05;;
59006;SDS011;44792;52.760;6.726;2022-11-15T07:37:57;24.08;;;13.82;;
59006;SDS011;44792;52.760;6.726;2022-11-15T07:40:25;26.83;;;13.23;;
59006;SDS011;44792;52.760;6.726;2022-11-15T07:42:52;25.25;;;13.73;;
59006;SDS011;44792;52.760;6.726;2022-11-15T07:45:17;27.23;;;15.10;;
59006;SDS011;44792;52.760;6.726;2022-11-15T07:47:47;24.83;;;13.85;;
59006;SDS011;44792;52.760;6.726;2022-11-15T07:50:13;25.75;;;14.43;;
59006;SDS011;44792;52.760;6.726;2022-11-15T07:52:39;27.42;;;13.93;;
59006;SDS011;44792;52.760;6.726;2022-11-15T07:55:04;25.50;;;13.77;;
59006;SDS011;44792;52.760;6.726;2022-11-15T07:57:30;26.13;;;14.02;;
59006;SDS011;44792;52.760;6.726;2022-11-15T07:59:56;28.33;;;13.88;;
59006;SDS011;44792;52.760;6.726;2022-11-15T08:02:21;28.63;;;15.40;;
59006;SDS011;44792;52.760;6.726;2022-11-15T08:04:47;25.00;;;14.02;;
59006;SDS011;44792;52.760;6.726;2022-11-15T08:07:12;27.15;;;14.43;;
59006;SDS011;44792;52.760;6.726;2022-11-15T08:09:38;29.92;;;14.15;;
59006;SDS011;44792;52.760;6.726;2022-11-15T08:12:04;25.63;;;13.90;;
59006;SDS011;44792;52.760;6.726;2022-11-15T08:14:29;27.27;;;14.98;;
59006;SDS011;44792;52.760;6.726;2022-11-15T08:16:55;29.95;;;14.20;;
59006;SDS011;44792;52.760;6.726;2022-11-15T08:19:20;26.90;;;15.05;;
59006;SDS011;44792;52.760;6.726;2022-11-15T08:21:46;29.52;;;14.90;;
59006;SDS011;44792;52.760;6.726;2022-11-15T08:24:12;39.78;;;16.05;;
59006;SDS011;44792;52.760;6.726;2022-11-15T08:26:38;40.58;;;16.38;;
59006;SDS011;44792;52.760;6.726;2022-11-15T08:29:04;35.53;;;16.17;;
59006;SDS011;44792;52.760;6.726;2022-11-15T08:31:30;27.60;;;16.05;;
59006;SDS011;44792;52.760;6.726;2022-11-15T08:33:56;25.58;;;14.70;;
59006;SDS011;44792;52.760;6.726;2022-11-15T08:36:21;26.17;;;14.98;;
59006;SDS011;44792;52.760;6.726;2022-11-15T08:38:47;22.80;;;14.75;;
59006;SDS011;44792;52.760;6.726;2022-11-15T08:41:23;32.58;;;14.88;;
59006;SDS011;44792;52.760;6.726;2022-11-15T08:43:51;38.42;;;17.35;;
59006;SDS011;44792;52.760;6.726;2022-11-15T08:46:17;27.63;;;14.95;;
59006;SDS011;44792;52.760;6.726;2022-11-15T08:48:43;31.27;;;14.45;;
59006;SDS011;44792;52.760;6.726;2022-11-15T08:51:08;26.65;;;14.93;;
59006;SDS011;44792;52.760;6.726;2022-11-15T08:53:34;21.92;;;12.75;;
59006;SDS011;44792;52.760;6.726;2022-11-15T08:55:59;25.63;;;13.43;;
59006;SDS011;44792;52.760;6.726;2022-11-15T08:58:26;23.52;;;13.90;;
59006;SDS011;44792;52.760;6.726;2022-11-15T09:00:51;24.20;;;13.00;;
59006;SDS011;44792;52.760;6.726;2022-11-15T09:03:17;21.98;;;13.38;;
59006;SDS011;44792;52.760;6.726;2022-11-15T09:05:42;20.13;;;12.35;;
59006;SDS011;44792;52.760;6.726;2022-11-15T09:08:08;21.20;;;12.25;;
59006;SDS011;44792;52.760;6.726;2022-11-15T09:10:33;22.27;;;12.85;;
59006;SDS011;44792;52.760;6.726;2022-11-15T09:12:59;17.85;;;11.93;;
59006;SDS011;44792;52.760;6.726;2022-11-15T09:15:24;17.83;;;11.52;;
59006;SDS011;44792;52.760;6.726;2022-11-15T09:17:50;17.58;;;11.95;;
59006;SDS011;44792;52.760;6.726;2022-11-15T09:20:15;18.90;;;11.13;;
59006;SDS011;44792;52.760;6.726;2022-11-15T09:22:41;15.27;;;10.23;;
59006;SDS011;44792;52.760;6.726;2022-11-15T09:25:07;18.90;;;11.40;;
59006;SDS011;44792;52.760;6.726;2022-11-15T09:27:32;15.43;;;10.68;;
59006;SDS011;44792;52.760;6.726;2022-11-15T09:29:58;19.65;;;11.68;;
59006;SDS011;44792;52.760;6.726;2022-11-15T09:32:27;18.08;;;11.50;;
59006;SDS011;44792;52.760;6.726;2022-11-15T09:34:55;16.80;;;10.98;;
59006;SDS011;44792;52.760;6.726;2022-11-15T09:37:21;18.33;;;11.07;;
59006;SDS011;44792;52.760;6.726;2022-11-15T09:39:46;21.85;;;12.23;;
59006;SDS011;44792;52.760;6.726;2022-11-15T09:42:26;21.50;;;13.32;;
59006;SDS011;44792;52.760;6.726;2022-11-15T09:45:10;20.02;;;13.43;;
59006;SDS011;44792;52.760;6.726;2022-11-15T09:50:31;24.63;;;14.80;;
59006;SDS011;44792;52.760;6.726;2022-11-15T09:52:57;30.27;;;15.40;;
59006;SDS011;44792;52.760;6.726;2022-11-15T09:55:26;25.73;;;16.08;;
59006;SDS011;44792;52.760;6.726;2022-11-15T09:58:17;27.75;;;15.55;;
59006;SDS011;44792;52.760;6.726;2022-11-15T10:00:49;27.38;;;15.73;;
59006;SDS011;44792;52.760;6.726;2022-11-15T10:03:28;27.30;;;15.02;;
59006;SDS011;44792;52.760;6.726;2022-11-15T10:06:00;26.08;;;16.35;;
59006;SDS011;44792;52.760;6.726;2022-11-15T10:11:23;27.15;;;15.10;;
59006;SDS011;44792;52.760;6.726;2022-11-15T10:13:52;27.52;;;15.68;;
59006;SDS011;44792;52.760;6.726;2022-11-15T10:24:39;25.20;;;15.30;;
59006;SDS011;44792;52.760;6.726;2022-11-15T10:27:11;24.40;;;14.77;;
59006;SDS011;44792;52.760;6.726;2022-11-15T10:29:42;27.25;;;16.48;;
59006;SDS011;44792;52.760;6.726;2022-11-15T10:32:13;26.98;;;14.95;;
59006;SDS011;44792;52.760;6.726;2022-11-15T10:34:40;23.92;;;14.80;;
59006;SDS011;44792;52.760;6.726;2022-11-15T10:37:05;20.77;;;12.85;;
59006;SDS011;44792;52.760;6.726;2022-11-15T10:39:31;23.70;;;13.73;;
59006;SDS011;44792;52.760;6.726;2022-11-15T10:41:58;18.20;;;11.85;;
59006;SDS011;44792;52.760;6.726;2022-11-15T10:44:49;22.48;;;12.88;;
59006;SDS011;44792;52.760;6.726;2022-11-15T10:47:28;20.75;;;11.48;;
59006;SDS011;44792;52.760;6.726;2022-11-15T10:50:00;18.67;;;11.02;;
59006;SDS011;44792;52.760;6.726;2022-11-15T10:52:29;17.75;;;10.50;;
59006;SDS011;44792;52.760;6.726;2022-11-15T10:57:47;16.20;;;10.07;;
59006;SDS011;44792;52.760;6.726;2022-11-15T11:02:56;16.00;;;8.85;;
59006;SDS011;44792;52.760;6.726;2022-11-15T11:05:34;15.10;;;8.63;;
59006;SDS011;44792;52.760;6.726;2022-11-15T11:08:03;12.85;;;8.07;;
59006;SDS011;44792;52.760;6.726;2022-11-15T11:10:56;13.95;;;7.82;;
59006;SDS011;44792;52.760;6.726;2022-11-15T11:13:25;14.98;;;7.93;;
59006;SDS011;44792;52.760;6.726;2022-11-15T11:16:14;13.90;;;8.32;;
59006;SDS011;44792;52.760;6.726;2022-11-15T11:24:08;8.80;;;5.95;;
59006;SDS011;44792;52.760;6.726;2022-11-15T11:30:19;10.48;;;6.22;;
59006;SDS011;44792;52.760;6.726;2022-11-15T11:40:40;8.23;;;5.07;;
59006;SDS011;44792;52.760;6.726;2022-11-15T11:43:13;8.45;;;4.80;;
59006;SDS011;44792;52.760;6.726;2022-11-15T11:51:28;15.40;;;6.22;;
59006;SDS011;44792;52.760;6.726;2022-11-15T11:56:41;8.15;;;4.93;;
59006;SDS011;44792;52.760;6.726;2022-11-15T11:59:12;10.15;;;4.65;;
59006;SDS011;44792;52.760;6.726;2022-11-15T12:01:43;6.72;;;4.40;;
59006;SDS011;44792;52.760;6.726;2022-11-15T12:06:55;6.70;;;4.65;;
59006;SDS011;44792;52.760;6.726;2022-11-15T12:17:26;5.13;;;3.60;;
59006;SDS011;44792;52.760;6.726;2022-11-15T12:19:57;5.38;;;3.55;;
59006;SDS011;44792;52.760;6.726;2022-11-15T12:23:10;4.65;;;3.25;;
59006;SDS011;44792;52.760;6.726;2022-11-15T12:27:48;5.50;;;3.35;;
59006;SDS011;44792;52.760;6.726;2022-11-15T12:30:25;7.95;;;3.72;;
59006;SDS011;44792;52.760;6.726;2022-11-15T12:33:00;7.70;;;3.28;;
59006;SDS011;44792;52.760;6.726;2022-11-15T12:35:34;5.32;;;3.15;;
59006;SDS011;44792;52.760;6.726;2022-11-15T12:38:02;5.28;;;2.90;;
59006;SDS011;44792;52.760;6.726;2022-11-15T12:40:32;5.47;;;2.90;;
59006;SDS011;44792;52.760;6.726;2022-11-15T12:43:01;5.50;;;3.42;;
59006;SDS011;44792;52.760;6.726;2022-11-15T12:45:53;4.63;;;3.20;;
59006;SDS011;44792;52.760;6.726;2022-11-15T12:58:50;3.60;;;2.53;;
59006;SDS011;44792;52.760;6.726;2022-11-15T13:07:04;3.47;;;2.20;;
59006;SDS011;44792;52.760;6.726;2022-11-15T13:12:07;4.88;;;1.92;;
59006;SDS011;44792;52.760;6.726;2022-11-15T13:14:59;5.00;;;2.13;;
59006;SDS011;44792;52.760;6.726;2022-11-15T13:20:27;5.88;;;2.17;;
59006;SDS011;44792;52.760;6.726;2022-11-15T13:23:09;2.40;;;1.90;;
59006;SDS011;44792;52.760;6.726;2022-11-15T13:28:26;4.10;;;2.28;;
59006;SDS011;44792;52.760;6.726;2022-11-15T13:30:54;3.85;;;1.90;;
59006;SDS011;44792;52.760;6.726;2022-11-15T13:33:25;3.42;;;1.90;;
59006;SDS011;44792;52.760;6.726;2022-11-15T13:36:03;2.88;;;1.77;;
59006;SDS011;44792;52.760;6.726;2022-11-15T13:38:34;1.65;;;1.55;;
59006;SDS011;44792;52.760;6.726;2022-11-15T13:42:03;2.10;;;2.00;;
59006;SDS011;44792;52.760;6.726;2022-11-15T13:43:59;2.75;;;1.77;;
59006;SDS011;44792;52.760;6.726;2022-11-15T13:46:27;2.03;;;1.83;;
59006;SDS011;44792;52.760;6.726;2022-11-15T13:48:58;1.75;;;1.65;;
59006;SDS011;44792;52.760;6.726;2022-11-15T13:51:27;3.28;;;2.25;;
59006;SDS011;44792;52.760;6.726;2022-11-15T13:54:16;3.65;;;2.13;;
59006;SDS011;44792;52.760;6.726;2022-11-15T13:56:48;3.55;;;2.75;;
59006;SDS011;44792;52.760;6.726;2022-11-15T14:02:14;6.13;;;3.10;;
59006;SDS011;44792;52.760;6.726;2022-11-15T14:04:53;4.78;;;3.30;;
59006;SDS011;44792;52.760;6.726;2022-11-15T14:07:22;5.22;;;4.65;;
59006;SDS011;44792;52.760;6.726;2022-11-15T14:09:49;3.97;;;3.08;;
59006;SDS011;44792;52.760;6.726;2022-11-15T14:12:26;5.30;;;3.28;;
59006;SDS011;44792;52.760;6.726;2022-11-15T14:14:54;6.07;;;3.35;;
59006;SDS011;44792;52.760;6.726;2022-11-15T14:19:55;5.13;;;3.78;;
59006;SDS011;44792;52.760;6.726;2022-11-15T14:22:24;5.55;;;3.65;;
59006;SDS011;44792;52.760;6.726;2022-11-15T14:30:34;3.72;;;3.15;;
59006;SDS011;44792;52.760;6.726;2022-11-15T14:33:00;5.38;;;4.18;;
59006;SDS011;44792;52.760;6.726;2022-11-15T14:35:25;5.85;;;4.05;;
59006;SDS011;44792;52.760;6.726;2022-11-15T14:38:01;5.82;;;4.53;;
59006;SDS011;44792;52.760;6.726;2022-11-15T14:40:26;4.75;;;3.95;;
59006;SDS011;44792;52.760;6.726;2022-11-15T14:42:52;5.50;;;4.18;;
59006;SDS011;44792;52.760;6.726;2022-11-15T14:45:19;5.72;;;4.78;;
59006;SDS011;44792;52.760;6.726;2022-11-15T14:47:45;6.60;;;4.43;;
59006;SDS011;44792;52.760;6.726;2022-11-15T14:50:12;6.25;;;4.78;;
59006;SDS011;44792;52.760;6.726;2022-11-15T14:52:39;6.07;;;4.78;;
59006;SDS011;44792;52.760;6.726;2022-11-15T14:55:10;6.82;;;4.00;;
59006;SDS011;44792;52.760;6.726;2022-11-15T14:57:43;5.28;;;4.43;;
59006;SDS011;44792;52.760;6.726;2022-11-15T15:00:08;6.78;;;4.07;;
59006;SDS011;44792;52.760;6.726;2022-11-15T15:02:35;6.38;;;4.45;;
59006;SDS011;44792;52.760;6.726;2022-11-15T15:05:01;4.70;;;4.13;;
59006;SDS011;44792;52.760;6.726;2022-11-15T15:07:34;6.63;;;4.53;;
59006;SDS011;44792;52.760;6.726;2022-11-15T15:10:00;6.63;;;4.32;;
59006;SDS011;44792;52.760;6.726;2022-11-15T15:12:25;4.40;;;3.83;;
59006;SDS011;44792;52.760;6.726;2022-11-15T15:14:51;6.30;;;4.97;;
59006;SDS011;44792;52.760;6.726;2022-11-15T15:17:16;6.90;;;4.78;;
59006;SDS011;44792;52.760;6.726;2022-11-15T15:19:42;8.80;;;4.78;;
59006;SDS011;44792;52.760;6.726;2022-11-15T15:22:10;5.78;;;4.70;;
59006;SDS011;44792;52.760;6.726;2022-11-15T15:24:42;6.53;;;5.63;;
59006;SDS011;44792;52.760;6.726;2022-11-15T15:27:08;6.35;;;4.68;;
59006;SDS011;44792;52.760;6.726;2022-11-15T15:29:34;6.38;;;4.80;;
59006;SDS011;44792;52.760;6.726;2022-11-15T15:32:00;5.32;;;4.10;;
59006;SDS011;44792;52.760;6.726;2022-11-15T15:34:26;6.88;;;3.78;;
59006;SDS011;44792;52.760;6.726;2022-11-15T15:39:53;4.93;;;2.65;;
59006;SDS011;44792;52.760;6.726;2022-11-15T15:42:20;4.35;;;3.63;;
59006;SDS011;44792;52.760;6.726;2022-11-15T15:44:47;3.80;;;3.13;;
59006;SDS011;44792;52.760;6.726;2022-11-15T15:47:13;3.85;;;3.10;;
59006;SDS011;44792;52.760;6.726;2022-11-15T15:49:42;7.45;;;3.85;;
59006;SDS011;44792;52.760;6.726;2022-11-15T15:52:07;2.78;;;2.40;;
59006;SDS011;44792;52.760;6.726;2022-11-15T15:54:33;2.90;;;2.70;;
59006;SDS011;44792;52.760;6.726;2022-11-15T15:56:58;3.08;;;2.78;;
59006;SDS011;44792;52.760;6.726;2022-11-15T15:59:24;3.25;;;2.60;;
59006;SDS011;44792;52.760;6.726;2022-11-15T16:01:50;4.45;;;2.33;;
59006;SDS011;44792;52.760;6.726;2022-11-15T16:04:16;2.40;;;2.20;;
59006;SDS011;44792;52.760;6.726;2022-11-15T16:06:43;2.42;;;1.90;;
59006;SDS011;44792;52.760;6.726;2022-11-15T16:09:14;2.30;;;2.10;;
59006;SDS011;44792;52.760;6.726;2022-11-15T16:11:41;3.40;;;2.42;;
59006;SDS011;44792;52.760;6.726;2022-11-15T16:14:08;2.90;;;2.33;;
59006;SDS011;44792;52.760;6.726;2022-11-15T16:16:34;2.42;;;1.70;;
59006;SDS011;44792;52.760;6.726;2022-11-15T16:19:00;2.35;;;2.10;;
59006;SDS011;44792;52.760;6.726;2022-11-15T16:21:27;2.65;;;2.15;;
59006;SDS011;44792;52.760;6.726;2022-11-15T16:23:52;4.45;;;2.10;;
59006;SDS011;44792;52.760;6.726;2022-11-15T16:26:22;2.35;;;1.70;;
59006;SDS011;44792;52.760;6.726;2022-11-15T16:28:50;2.95;;;2.03;;
59006;SDS011;44792;52.760;6.726;2022-11-15T16:31:16;2.20;;;1.80;;
59006;SDS011;44792;52.760;6.726;2022-11-15T16:33:43;1.98;;;1.67;;
59006;SDS011;44792;52.760;6.726;2022-11-15T16:36:15;2.50;;;1.77;;
59006;SDS011;44792;52.760;6.726;2022-11-15T16:38:44;3.30;;;1.85;;
59006;SDS011;44792;52.760;6.726;2022-11-15T16:41:10;2.22;;;1.73;;